Time,TemperatureF,DewpointF,PressureIn,WindDirection,WindDirectionDegrees,WindSpeedMPH,WindSpeedGustMPH,Humidity,HourlyPrecipIn,Conditions,Clouds,dailyrainin,SoftwareType,DateUTC
2013-05-31 00:00:00,73.5,66.1,30.13,NW,312,0.0,238.7,78,4.70,,,0.00,VWS V14.01,2013-05-31 04:00:00,
2013-05-31 00:01:00,73.5,66.0,30.13,NW,312,0.0,238.7,78,4.70,,,0.00,VWS V14.01,2013-05-31 04:01:00,
2013-05-31 00:02:00,72.8,64.7,30.14,NW,312,0.0,238.7,76,4.70,,,0.00,VWS V14.01,2013-05-31 04:02:00,
2013-05-31 00:03:00,73.5,66.0,30.13,NW,312,0.0,238.7,77,4.70,,,0.00,VWS V14.01,2013-05-31 04:03:00,
2013-05-31 00:04:00,72.8,64.6,30.14,NW,312,0.0,238.7,76,4.70,,,0.00,VWS V14.01,2013-05-31 04:04:00,
2013-05-31 00:05:00,72.8,64.6,30.14,NW,312,0.0,238.7,75,4.70,,,0.00,VWS V14.01,2013-05-31 04:05:00,
2013-05-31 00:06:00,72.7,64.5,30.14,NW,312,0.0,238.7,75,4.70,,,0.00,VWS V14.01,2013-05-31 04:06:00,
2013-05-31 00:07:00,73.5,65.7,30.13,NW,312,0.0,238.7,76,4.70,,,0.00,VWS V14.01,2013-05-31 04:07:00,
2013-05-31 00:08:00,72.7,64.5,30.14,NW,312,0.0,238.7,76,4.70,,,0.00,VWS V14.01,2013-05-31 04:08:00,
2013-05-31 00:09:00,73.6,65.6,30.13,NW,312,0.0,238.7,76,4.70,,,0.00,VWS V14.01,2013-05-31 04:09:00,
2013-05-31 00:10:00,73.6,65.4,30.13,NW,312,0.0,238.7,76,4.70,,,0.00,VWS V14.01,2013-05-31 04:10:00,
2013-05-31 00:11:00,72.7,64.7,30.14,NW,312,0.0,238.7,76,4.70,,,0.00,VWS V14.01,2013-05-31 04:11:00,
2013-05-31 00:12:00,72.7,64.7,30.14,NW,312,0.0,238.7,76,4.70,,,0.00,VWS V14.01,2013-05-31 04:12:00,
2013-05-31 00:13:00,72.7,64.7,30.14,NW,312,0.0,238.7,76,4.70,,,0.00,VWS V14.01,2013-05-31 04:13:00,
2013-05-31 00:14:00,72.7,64.7,30.14,NW,312,0.0,238.7,76,4.70,,,0.00,VWS V14.01,2013-05-31 04:14:00,
2013-05-31 00:15:00,73.6,65.0,30.13,NW,312,0.0,238.7,75,4.70,,,0.00,VWS V14.01,2013-05-31 04:15:00,
2013-05-31 00:16:00,72.7,64.7,30.14,NW,312,0.0,238.7,76,4.70,,,0.00,VWS V14.01,2013-05-31 04:16:00,
2013-05-31 00:17:00,72.6,64.7,30.14,NW,312,0.0,238.7,76,4.70,,,0.00,VWS V14.01,2013-05-31 04:17:00,
2013-05-31 00:18:00,72.6,64.7,30.14,NW,312,0.0,238.7,76,4.70,,,0.00,VWS V14.01,2013-05-31 04:18:00,
2013-05-31 00:19:00,72.6,64.7,30.14,NW,312,0.0,238.7,76,4.70,,,0.00,VWS V14.01,2013-05-31 04:19:00,
2013-05-31 00:20:00,73.6,64.8,30.13,NW,312,0.0,238.7,74,4.70,,,0.00,VWS V14.01,2013-05-31 04:20:00,
2013-05-31 00:21:00,72.6,64.8,30.14,NW,312,0.0,238.7,76,4.70,,,0.00,VWS V14.01,2013-05-31 04:21:00,
2013-05-31 00:22:00,72.5,64.7,30.14,NW,312,0.0,238.7,77,4.70,,,0.00,VWS V14.01,2013-05-31 04:22:00,
2013-05-31 00:23:00,72.5,64.8,30.14,NW,312,0.0,238.7,77,4.70,,,0.00,VWS V14.01,2013-05-31 04:23:00,
2013-05-31 00:24:00,72.5,64.8,30.14,NW,312,0.0,238.7,77,4.70,,,0.00,VWS V14.01,2013-05-31 04:24:00,
2013-05-31 00:25:00,73.5,64.6,30.13,NW,312,0.0,238.7,74,4.70,,,0.00,VWS V14.01,2013-05-31 04:25:00,
2013-05-31 00:26:00,72.4,64.7,30.14,NW,312,0.0,238.7,77,4.70,,,0.00,VWS V14.01,2013-05-31 04:26:00,
2013-05-31 00:27:00,72.5,64.8,30.14,NW,312,0.0,238.7,77,4.70,,,0.00,VWS V14.01,2013-05-31 04:27:00,
2013-05-31 00:28:00,72.4,64.7,30.14,NW,312,0.0,238.7,77,4.70,,,0.00,VWS V14.01,2013-05-31 04:28:00,
2013-05-31 00:29:00,72.4,64.6,30.14,NW,312,0.0,238.7,77,4.70,,,0.00,VWS V14.01,2013-05-31 04:29:00,
2013-05-31 00:30:00,72.3,64.5,30.14,NW,312,0.0,238.7,77,4.70,,,0.00,VWS V14.01,2013-05-31 04:30:00,
2013-05-31 00:31:00,73.4,64.7,30.13,NW,312,0.0,238.7,74,4.70,,,0.00,VWS V14.01,2013-05-31 04:31:00,
2013-05-31 00:32:00,72.3,64.7,30.14,NW,312,0.0,238.7,77,4.70,,,0.00,VWS V14.01,2013-05-31 04:32:00,
2013-05-31 00:33:00,72.3,64.7,30.14,NW,312,0.0,238.7,77,4.70,,,0.00,VWS V14.01,2013-05-31 04:33:00,
2013-05-31 00:34:00,72.2,64.6,30.14,NW,312,0.0,238.7,77,4.70,,,0.00,VWS V14.01,2013-05-31 04:34:00,
2013-05-31 00:35:00,72.2,64.7,30.14,NW,312,0.0,238.7,77,4.70,,,0.00,VWS V14.01,2013-05-31 04:35:00,
2013-05-31 00:36:00,73.3,64.5,30.13,NW,312,0.0,238.7,74,4.70,,,0.00,VWS V14.01,2013-05-31 04:36:00,
2013-05-31 00:37:00,72.2,64.9,30.14,NW,312,0.0,238.7,78,4.70,,,0.00,VWS V14.01,2013-05-31 04:37:00,
2013-05-31 00:38:00,72.1,64.9,30.14,NW,312,0.0,238.7,78,4.70,,,0.00,VWS V14.01,2013-05-31 04:38:00,
2013-05-31 00:39:00,72.1,64.9,30.14,NW,312,0.0,238.7,78,4.70,,,0.00,VWS V14.01,2013-05-31 04:39:00,
2013-05-31 00:40:00,72.0,65.0,30.14,NW,312,0.0,238.7,79,4.70,,,0.00,VWS V14.01,2013-05-31 04:40:00,
2013-05-31 00:41:00,73.2,64.4,30.13,NW,312,0.0,238.7,74,4.70,,,0.00,VWS V14.01,2013-05-31 04:41:00,
2013-05-31 00:42:00,71.9,65.2,30.14,NW,312,0.0,238.7,79,4.70,,,0.00,VWS V14.01,2013-05-31 04:42:00,
2013-05-31 00:43:00,71.9,65.1,30.14,NW,312,0.0,238.7,79,4.70,,,0.00,VWS V14.01,2013-05-31 04:43:00,
2013-05-31 00:45:00,71.8,65.0,30.14,NW,312,0.0,238.7,79,4.70,,,0.00,VWS V14.01,2013-05-31 04:45:00,
2013-05-31 00:46:00,73.1,64.6,30.14,NW,312,0.0,238.7,75,4.70,,,0.00,VWS V14.01,2013-05-31 04:46:00,
2013-05-31 00:47:00,71.8,64.9,30.14,NW,312,0.0,238.7,79,4.70,,,0.00,VWS V14.01,2013-05-31 04:47:00,
2013-05-31 00:48:00,71.8,64.9,30.14,NW,312,0.0,238.7,79,4.70,,,0.00,VWS V14.01,2013-05-31 04:48:00,
2013-05-31 00:49:00,71.8,64.8,30.14,NW,312,0.0,238.7,79,4.70,,,0.00,VWS V14.01,2013-05-31 04:49:00,
2013-05-31 00:50:00,71.8,64.8,30.14,NW,312,0.0,238.7,79,4.70,,,0.00,VWS V14.01,2013-05-31 04:50:00,
2013-05-31 00:51:00,73.0,64.7,30.14,NW,312,0.0,238.7,75,4.70,,,0.00,VWS V14.01,2013-05-31 04:51:00,
2013-05-31 00:52:00,71.7,64.6,30.14,NW,312,0.0,238.7,78,4.70,,,0.00,VWS V14.01,2013-05-31 04:52:00,
2013-05-31 00:53:00,71.7,64.6,30.14,NW,312,0.0,238.7,78,4.70,,,0.00,VWS V14.01,2013-05-31 04:53:00,
2013-05-31 00:54:00,71.7,64.6,30.14,NW,312,0.0,238.7,78,4.70,,,0.00,VWS V14.01,2013-05-31 04:54:00,
2013-05-31 00:55:00,71.7,64.6,30.14,NW,312,0.0,238.7,78,4.70,,,0.00,VWS V14.01,2013-05-31 04:55:00,
2013-05-31 00:56:00,72.8,64.7,30.14,NW,312,0.0,238.7,76,4.70,,,0.00,VWS V14.01,2013-05-31 04:56:00,
2013-05-31 00:57:00,71.6,64.5,30.14,NW,312,0.0,238.7,78,4.70,,,0.00,VWS V14.01,2013-05-31 04:57:00,
2013-05-31 00:58:00,71.6,64.5,30.14,NW,312,0.0,238.7,78,4.70,,,0.00,VWS V14.01,2013-05-31 04:58:00,
2013-05-31 00:59:00,71.6,64.6,30.14,NW,312,0.0,238.7,79,4.70,,,0.00,VWS V14.01,2013-05-31 04:59:00,
2013-05-31 01:00:00,71.6,64.8,30.14,NW,312,0.0,238.7,79,4.70,,,0.00,VWS V14.01,2013-05-31 05:00:00,
2013-05-31 01:01:00,71.5,64.8,30.14,NW,312,0.0,238.7,80,4.70,,,0.00,VWS V14.01,2013-05-31 05:01:00,
2013-05-31 01:02:00,71.5,64.8,30.14,NW,312,0.0,238.7,79,4.70,,,0.00,VWS V14.01,2013-05-31 05:02:00,
2013-05-31 01:03:00,71.5,64.8,30.14,NW,312,0.0,238.7,79,4.70,,,0.00,VWS V14.01,2013-05-31 05:03:00,
2013-05-31 01:04:00,71.4,64.7,30.14,NW,312,0.0,238.7,79,4.70,,,0.00,VWS V14.01,2013-05-31 05:04:00,
2013-05-31 01:05:00,71.4,64.7,30.14,NW,312,0.0,238.7,79,4.70,,,0.00,VWS V14.01,2013-05-31 05:05:00,
2013-05-31 01:06:00,71.4,64.7,30.14,NW,312,0.0,238.7,79,4.70,,,0.00,VWS V14.01,2013-05-31 05:06:00,
2013-05-31 01:07:00,71.3,64.6,30.14,NW,312,0.0,238.7,79,4.70,,,0.00,VWS V14.01,2013-05-31 05:07:00,
2013-05-31 01:08:00,71.3,64.6,30.14,NW,312,0.0,238.7,79,4.70,,,0.00,VWS V14.01,2013-05-31 05:08:00,
2013-05-31 01:09:00,71.3,64.5,30.14,NW,312,0.0,238.7,79,4.70,,,0.00,VWS V14.01,2013-05-31 05:09:00,
2013-05-31 01:10:00,71.3,64.5,30.14,NW,312,0.0,238.7,79,4.70,,,0.00,VWS V14.01,2013-05-31 05:10:00,
2013-05-31 01:11:00,71.3,64.4,30.14,NW,312,0.0,238.7,79,4.70,,,0.00,VWS V14.01,2013-05-31 05:11:00,
2013-05-31 01:13:00,71.3,64.3,30.14,NW,312,0.0,238.7,79,4.70,,,0.00,VWS V14.01,2013-05-31 05:13:00,
2013-05-31 01:14:00,71.3,64.3,30.14,NW,312,0.0,238.7,79,4.70,,,0.00,VWS V14.01,2013-05-31 05:14:00,
2013-05-31 01:15:00,71.3,64.2,30.14,NW,312,0.0,238.7,78,4.70,,,0.00,VWS V14.01,2013-05-31 05:15:00,
2013-05-31 01:16:00,71.3,64.2,30.14,NW,312,0.0,238.7,78,4.70,,,0.00,VWS V14.01,2013-05-31 05:16:00,
2013-05-31 01:17:00,71.3,64.1,30.14,NW,312,0.0,238.7,78,4.70,,,0.00,VWS V14.01,2013-05-31 05:17:00,
2013-05-31 01:18:00,71.3,64.1,30.14,NW,312,0.0,238.7,78,4.70,,,0.00,VWS V14.01,2013-05-31 05:18:00,
2013-05-31 01:19:00,71.3,64.1,30.14,NW,312,0.0,238.7,78,4.70,,,0.00,VWS V14.01,2013-05-31 05:19:00,
2013-05-31 01:22:00,71.3,64.0,30.14,NW,312,0.0,238.7,78,4.70,,,0.00,VWS V14.01,2013-05-31 05:22:00,
2013-05-31 01:23:00,71.3,64.0,30.14,NW,312,0.0,238.7,78,4.70,,,0.00,VWS V14.01,2013-05-31 05:23:00,
2013-05-31 01:25:00,71.3,64.1,30.14,NW,312,0.0,238.7,78,4.70,,,0.00,VWS V14.01,2013-05-31 05:25:00,
2013-05-31 01:26:00,71.3,64.2,30.14,NW,312,0.0,238.7,78,4.70,,,0.00,VWS V14.01,2013-05-31 05:26:00,
2013-05-31 01:29:00,71.3,64.4,30.13,NW,312,0.0,238.7,79,4.70,,,0.00,VWS V14.01,2013-05-31 05:29:00,
2013-05-31 01:30:00,71.2,64.3,30.13,NW,312,0.0,238.7,79,4.70,,,0.00,VWS V14.01,2013-05-31 05:30:00,
2013-05-31 01:31:00,71.2,64.4,30.13,NW,312,0.0,238.7,79,4.70,,,0.00,VWS V14.01,2013-05-31 05:31:00,
2013-05-31 01:35:00,71.1,64.2,30.13,NW,312,0.0,238.7,79,4.70,,,0.00,VWS V14.01,2013-05-31 05:35:00,
2013-05-31 01:37:00,71.1,64.2,30.13,NW,312,0.0,238.7,79,4.70,,,0.00,VWS V14.01,2013-05-31 05:37:00,
2013-05-31 01:38:00,71.1,64.2,30.13,NW,312,0.0,238.7,79,4.70,,,0.00,VWS V14.01,2013-05-31 05:38:00,
2013-05-31 01:39:00,71.2,64.2,30.13,NW,312,0.0,238.7,79,4.70,,,0.00,VWS V14.01,2013-05-31 05:39:00,
2013-05-31 01:41:00,71.1,64.1,30.13,NW,312,0.0,238.7,78,4.70,,,0.00,VWS V14.01,2013-05-31 05:41:00,
2013-05-31 01:43:00,71.2,64.1,30.13,NW,312,0.0,238.7,78,4.70,,,0.00,VWS V14.01,2013-05-31 05:43:00,
2013-05-31 01:44:00,71.2,64.0,30.13,NW,312,0.0,238.7,78,4.70,,,0.00,VWS V14.01,2013-05-31 05:44:00,
2013-05-31 01:45:00,71.1,63.9,30.13,NW,312,0.0,238.7,78,4.70,,,0.00,VWS V14.01,2013-05-31 05:45:00,
2013-05-31 01:46:00,71.2,64.0,30.13,NW,312,0.0,238.7,78,4.70,,,0.00,VWS V14.01,2013-05-31 05:46:00,
2013-05-31 01:49:00,71.2,63.8,30.13,NW,312,0.0,238.7,78,4.70,,,0.00,VWS V14.01,2013-05-31 05:49:00,
2013-05-31 01:51:00,71.3,63.8,30.13,NW,312,0.0,238.7,77,4.70,,,0.00,VWS V14.01,2013-05-31 05:51:00,
2013-05-31 01:55:00,71.4,63.7,30.13,NW,312,0.0,238.7,77,4.70,,,0.00,VWS V14.01,2013-05-31 05:55:00,
2013-05-31 02:05:00,71.6,63.7,30.13,NW,312,0.0,238.7,76,4.70,,,0.00,VWS V14.01,2013-05-31 06:05:00,
2013-05-31 02:12:00,71.6,63.7,30.13,NW,312,0.0,238.7,76,4.70,,,0.00,VWS V14.01,2013-05-31 06:12:00,
2013-05-31 02:17:00,71.3,64.1,30.14,NW,312,0.0,238.7,78,4.70,,,0.00,VWS V14.01,2013-05-31 06:17:00,
2013-05-31 02:20:00,71.6,63.8,30.13,NW,312,0.0,238.7,76,4.70,,,0.00,VWS V14.01,2013-05-31 06:20:00,
2013-05-31 02:25:00,71.3,64.3,30.13,NW,312,0.0,238.7,79,4.70,,,0.00,VWS V14.01,2013-05-31 06:25:00,
2013-05-31 02:30:00,71.2,64.3,30.13,NW,312,0.0,238.7,79,4.70,,,0.00,VWS V14.01,2013-05-31 06:30:00,
2013-05-31 02:39:00,71.2,64.1,30.13,NW,312,0.0,238.7,78,4.70,,,0.00,VWS V14.01,2013-05-31 06:39:00,
2013-05-31 02:44:00,71.2,63.9,30.13,NW,312,0.0,238.7,78,4.70,,,0.00,VWS V14.01,2013-05-31 06:44:00,
2013-05-31 02:49:00,71.3,63.8,30.13,NW,312,0.0,238.7,77,4.70,,,0.00,VWS V14.01,2013-05-31 06:49:00,
2013-05-31 02:55:00,71.4,63.6,30.13,NW,312,0.0,238.7,76,4.70,,,0.00,VWS V14.01,2013-05-31 06:55:00,
2013-05-31 03:00:00,71.5,63.6,30.13,NW,312,0.0,238.7,76,4.70,,,0.00,VWS V14.01,2013-05-31 07:00:00,
2013-05-31 03:05:00,71.6,63.7,30.13,NW,312,0.0,238.7,76,4.70,,,0.00,VWS V14.01,2013-05-31 07:05:00,
2013-05-31 03:10:00,71.6,63.7,30.13,NW,312,0.0,238.7,76,4.70,,,0.00,VWS V14.01,2013-05-31 07:10:00,
2013-05-31 03:15:00,71.6,63.7,30.13,NW,312,0.0,238.7,76,4.70,,,0.00,VWS V14.01,2013-05-31 07:15:00,
2013-05-31 03:21:00,71.6,63.7,30.13,NW,312,0.0,238.7,76,4.70,,,0.00,VWS V14.01,2013-05-31 07:21:00,
2013-05-31 03:26:00,71.7,63.7,30.13,NW,312,0.0,238.7,76,4.70,,,0.00,VWS V14.01,2013-05-31 07:26:00,
2013-05-31 03:32:00,71.6,63.6,30.13,NW,312,0.0,238.7,76,4.70,,,0.00,VWS V14.01,2013-05-31 07:32:00,
2013-05-31 03:37:00,71.5,63.7,30.13,NW,312,0.0,238.7,76,4.70,,,0.00,VWS V14.01,2013-05-31 07:37:00,
2013-05-31 03:43:00,71.1,63.7,30.13,NW,312,0.0,238.7,77,4.70,,,0.00,VWS V14.01,2013-05-31 07:43:00,
2013-05-31 03:48:00,70.9,63.8,30.13,NW,312,0.0,238.7,78,4.70,,,0.00,VWS V14.01,2013-05-31 07:48:00,
2013-05-31 03:53:00,70.7,63.6,30.13,NW,312,0.0,238.7,78,4.70,,,0.00,VWS V14.01,2013-05-31 07:53:00,
2013-05-31 03:58:00,70.5,63.5,30.13,NW,312,0.0,238.7,79,4.70,,,0.00,VWS V14.01,2013-05-31 07:58:00,
2013-05-31 04:04:00,70.4,63.6,30.13,NW,312,0.0,238.7,79,4.70,,,0.00,VWS V14.01,2013-05-31 08:04:00,
2013-05-31 04:09:00,70.2,63.5,30.13,NW,312,0.0,238.7,79,4.70,,,0.00,VWS V14.01,2013-05-31 08:09:00,
2013-05-31 04:14:00,70.1,63.4,30.13,NW,312,0.0,238.7,79,4.70,,,0.00,VWS V14.01,2013-05-31 08:14:00,
2013-05-31 04:19:00,70.1,63.4,30.13,NW,312,0.0,238.7,79,4.70,,,0.00,VWS V14.01,2013-05-31 08:19:00,
2013-05-31 04:24:00,70.1,63.5,30.14,NW,312,0.0,238.7,80,4.70,,,0.00,VWS V14.01,2013-05-31 08:24:00,
2013-05-31 04:30:00,70.0,63.5,30.14,NW,312,0.0,238.7,80,4.70,,,0.00,VWS V14.01,2013-05-31 08:30:00,
2013-05-31 04:35:00,69.8,63.5,30.14,NW,312,0.0,238.7,80,4.70,,,0.00,VWS V14.01,2013-05-31 08:35:00,
2013-05-31 04:40:00,69.6,63.6,30.14,NW,312,0.0,238.7,81,4.70,,,0.00,VWS V14.01,2013-05-31 08:40:00,
2013-05-31 04:45:00,69.5,63.8,30.14,NW,312,0.0,238.7,82,4.70,,,0.00,VWS V14.01,2013-05-31 08:45:00,
2013-05-31 04:50:00,69.3,63.8,30.14,NW,312,0.0,238.7,83,4.70,,,0.00,VWS V14.01,2013-05-31 08:50:00,
2013-05-31 04:55:00,69.1,63.7,30.14,NW,312,0.0,238.7,83,4.70,,,0.00,VWS V14.01,2013-05-31 08:55:00,
2013-05-31 05:01:00,69.0,63.8,30.14,NW,312,0.0,238.7,84,4.70,,,0.00,VWS V14.01,2013-05-31 09:01:00,
2013-05-31 05:06:00,69.0,63.7,30.14,NW,312,0.0,238.7,83,4.70,,,0.00,VWS V14.01,2013-05-31 09:06:00,
2013-05-31 05:11:00,68.9,63.8,30.14,NW,312,0.0,238.7,84,4.70,,,0.00,VWS V14.01,2013-05-31 09:11:00,
2013-05-31 05:16:00,68.8,63.9,30.14,NW,312,0.0,238.7,84,4.70,,,0.00,VWS V14.01,2013-05-31 09:16:00,
2013-05-31 05:21:00,68.6,63.8,30.14,NW,312,0.0,238.7,85,4.70,,,0.00,VWS V14.01,2013-05-31 09:21:00,
2013-05-31 05:26:00,68.6,63.8,30.14,NW,312,0.0,238.7,85,4.70,,,0.00,VWS V14.01,2013-05-31 09:26:00,
2013-05-31 05:32:00,68.7,63.7,30.14,NW,312,0.0,238.7,84,4.70,,,0.00,VWS V14.01,2013-05-31 09:32:00,
2013-05-31 05:37:00,68.7,63.8,30.14,NW,312,0.0,238.7,84,4.70,,,0.00,VWS V14.01,2013-05-31 09:37:00,
2013-05-31 05:42:00,68.7,63.9,30.14,NW,312,0.0,238.7,85,4.70,,,0.00,VWS V14.01,2013-05-31 09:42:00,
2013-05-31 05:47:00,68.5,64.0,30.14,NW,312,0.0,238.7,86,4.70,,,0.00,VWS V14.01,2013-05-31 09:47:00,
2013-05-31 05:52:00,68.5,64.2,30.14,NW,312,0.0,238.7,86,4.70,,,0.00,VWS V14.01,2013-05-31 09:52:00,
2013-05-31 05:58:00,68.4,64.2,30.15,NW,312,0.0,238.7,86,4.70,,,0.00,VWS V14.01,2013-05-31 09:58:00,
2013-05-31 06:03:00,68.4,64.2,30.15,NW,312,0.0,238.7,87,4.70,,,0.00,VWS V14.01,2013-05-31 10:03:00,
2013-05-31 06:08:00,68.5,64.4,30.15,NW,312,0.0,238.7,87,4.70,,,0.00,VWS V14.01,2013-05-31 10:08:00,
2013-05-31 06:13:00,68.4,64.3,30.15,NW,312,0.0,238.7,87,4.70,,,0.00,VWS V14.01,2013-05-31 10:13:00,
2013-05-31 06:18:00,68.6,64.5,30.15,NW,312,0.0,238.7,87,4.70,,,0.00,VWS V14.01,2013-05-31 10:18:00,
2013-05-31 06:24:00,68.6,64.4,30.15,NW,312,0.0,238.7,87,4.70,,,0.00,VWS V14.01,2013-05-31 10:24:00,
2013-05-31 06:29:00,68.9,64.7,30.15,NW,312,0.0,238.7,86,4.70,,,0.00,VWS V14.01,2013-05-31 10:29:00,
2013-05-31 06:34:00,69.1,64.6,30.15,NW,312,0.0,238.7,86,4.70,,,0.00,VWS V14.01,2013-05-31 10:34:00,
2013-05-31 06:39:00,69.4,64.7,30.15,NW,312,0.0,238.7,85,4.70,,,0.00,VWS V14.01,2013-05-31 10:39:00,
2013-05-31 06:44:00,69.8,64.8,30.16,NW,312,0.0,238.7,84,4.70,,,0.00,VWS V14.01,2013-05-31 10:44:00,
2013-05-31 06:49:00,70.3,65.0,30.16,NW,312,0.0,238.7,83,4.70,,,0.00,VWS V14.01,2013-05-31 10:49:00,
2013-05-31 06:55:00,70.6,65.1,30.16,NW,312,0.0,238.7,83,4.70,,,0.00,VWS V14.01,2013-05-31 10:55:00,
2013-05-31 07:00:00,71.0,65.3,30.16,NW,312,0.0,238.7,82,4.70,,,0.00,VWS V14.01,2013-05-31 11:00:00,
2013-05-31 07:05:00,71.3,65.6,30.16,NW,312,0.0,238.7,82,4.70,,,0.00,VWS V14.01,2013-05-31 11:05:00,
2013-05-31 07:10:00,71.5,65.4,30.16,NW,312,0.0,238.7,81,4.70,,,0.00,VWS V14.01,2013-05-31 11:10:00,
2013-05-31 07:15:00,71.8,65.7,30.16,NW,312,0.0,238.7,81,4.70,,,0.00,VWS V14.01,2013-05-31 11:15:00,
2013-05-31 07:21:00,72.0,66.2,30.16,NW,312,0.0,238.7,82,4.70,,,0.00,VWS V14.01,2013-05-31 11:21:00,
2013-05-31 07:26:00,72.2,66.5,30.16,NW,312,0.0,238.7,82,4.70,,,0.00,VWS V14.01,2013-05-31 11:26:00,
2013-05-31 07:31:00,72.5,66.9,30.16,NW,312,0.0,238.7,83,4.70,,,0.00,VWS V14.01,2013-05-31 11:31:00,
2013-05-31 07:36:00,72.8,67.3,30.16,NW,312,0.0,238.7,83,4.70,,,0.00,VWS V14.01,2013-05-31 11:36:00,
2013-05-31 07:41:00,73.1,67.7,30.16,NW,312,0.0,238.7,83,4.70,,,0.00,VWS V14.01,2013-05-31 11:41:00,
2013-05-31 07:47:00,73.5,68.3,30.16,NW,312,0.0,238.7,84,4.70,,,0.00,VWS V14.01,2013-05-31 11:47:00,
2013-05-31 07:52:00,73.8,68.2,30.16,NW,312,0.0,238.7,83,4.70,,,0.00,VWS V14.01,2013-05-31 11:52:00,
2013-05-31 07:57:00,74.2,68.1,30.16,NW,312,0.0,238.7,81,4.70,,,0.00,VWS V14.01,2013-05-31 11:57:00,
2013-05-31 08:02:00,74.5,67.9,30.16,NW,312,0.0,238.7,80,4.70,,,0.00,VWS V14.01,2013-05-31 12:02:00,
2013-05-31 08:07:00,74.9,67.9,30.16,NW,312,0.0,238.7,79,4.70,,,0.00,VWS V14.01,2013-05-31 12:07:00,
2013-05-31 08:13:00,75.4,68.1,30.16,NW,312,0.0,238.7,78,4.70,,,0.00,VWS V14.01,2013-05-31 12:13:00,
2013-05-31 08:18:00,75.9,68.1,30.16,NW,312,0.0,238.7,77,4.70,,,0.00,VWS V14.01,2013-05-31 12:18:00,
2013-05-31 08:24:00,76.3,68.1,30.16,NW,312,0.0,238.7,76,4.70,,,0.00,VWS V14.01,2013-05-31 12:24:00,
2013-05-31 08:29:00,76.8,67.8,30.16,NW,312,0.0,238.7,74,4.70,,,0.00,VWS V14.01,2013-05-31 12:29:00,
2013-05-31 08:35:00,77.2,67.7,30.16,NW,312,0.0,238.7,73,4.70,,,0.00,VWS V14.01,2013-05-31 12:35:00,
2013-05-31 08:40:00,77.9,67.8,30.16,NW,312,0.0,238.7,71,4.70,,,0.00,VWS V14.01,2013-05-31 12:40:00,
2013-05-31 08:46:00,78.2,67.8,30.16,NW,312,0.0,238.7,70,4.70,,,0.00,VWS V14.01,2013-05-31 12:46:00,
2013-05-31 08:52:00,78.5,68.0,30.16,NW,312,0.0,238.7,70,4.70,,,0.00,VWS V14.01,2013-05-31 12:52:00,
2013-05-31 08:57:00,79.3,67.8,30.16,NW,312,0.0,238.7,68,4.70,,,0.00,VWS V14.01,2013-05-31 12:57:00,
2013-05-31 09:03:00,79.9,68.4,30.15,NW,312,0.0,238.7,68,4.70,,,0.00,VWS V14.01,2013-05-31 13:03:00,
2013-05-31 09:08:00,80.1,67.8,30.16,NW,312,0.0,238.7,66,4.70,,,0.00,VWS V14.01,2013-05-31 13:08:00,
2013-05-31 09:13:00,80.3,67.2,30.16,NW,312,0.0,238.7,64,4.70,,,0.00,VWS V14.01,2013-05-31 13:13:00,
2013-05-31 09:18:00,80.9,67.5,30.16,NW,312,0.0,238.7,64,4.70,,,0.00,VWS V14.01,2013-05-31 13:18:00,
2013-05-31 09:24:00,81.3,67.4,30.15,NW,312,0.0,238.7,63,4.70,,,0.00,VWS V14.01,2013-05-31 13:24:00,
2013-05-31 09:29:00,82.0,66.8,30.15,NW,312,0.0,238.7,60,4.70,,,0.00,VWS V14.01,2013-05-31 13:29:00,
2013-05-31 09:34:00,82.4,67.6,30.15,NW,312,0.0,238.7,61,4.70,,,0.00,VWS V14.01,2013-05-31 13:34:00,
2013-05-31 09:39:00,82.8,66.9,30.15,NW,312,0.0,238.7,59,4.70,,,0.00,VWS V14.01,2013-05-31 13:39:00,
2013-05-31 09:44:00,83.4,66.6,30.15,NW,312,0.0,238.7,57,4.70,,,0.00,VWS V14.01,2013-05-31 13:44:00,
2013-05-31 09:49:00,83.7,66.4,30.15,NW,312,0.0,238.7,56,4.70,,,0.00,VWS V14.01,2013-05-31 13:49:00,
2013-05-31 09:55:00,84.4,66.5,30.15,NW,312,0.0,238.7,55,4.70,,,0.00,VWS V14.01,2013-05-31 13:55:00,
2013-05-31 10:00:00,85.1,66.9,30.15,NW,312,0.0,238.7,55,4.70,,,0.00,VWS V14.01,2013-05-31 14:00:00,
2013-05-31 10:05:00,85.5,66.4,30.15,NW,312,0.0,238.7,53,4.70,,,0.00,VWS V14.01,2013-05-31 14:05:00,
2013-05-31 10:10:00,85.9,66.9,30.15,NW,312,0.0,238.7,53,4.70,,,0.00,VWS V14.01,2013-05-31 14:10:00,
2013-05-31 10:15:00,86.2,66.7,30.15,NW,312,0.0,238.7,52,4.70,,,0.00,VWS V14.01,2013-05-31 14:15:00,
2013-05-31 10:21:00,86.6,67.1,30.14,NW,312,0.0,238.7,52,4.70,,,0.00,VWS V14.01,2013-05-31 14:21:00,
2013-05-31 10:26:00,87.1,65.8,30.14,NW,312,0.0,238.7,49,4.70,,,0.00,VWS V14.01,2013-05-31 14:26:00,
2013-05-31 10:31:00,87.8,66.2,30.14,NW,312,0.0,238.7,49,4.70,,,0.00,VWS V14.01,2013-05-31 14:31:00,
2013-05-31 10:36:00,88.5,65.7,30.14,NW,312,0.0,238.7,47,4.70,,,0.00,VWS V14.01,2013-05-31 14:36:00,
2013-05-31 10:41:00,88.7,66.8,30.14,NW,312,0.0,238.7,48,4.70,,,0.00,VWS V14.01,2013-05-31 14:41:00,
2013-05-31 10:47:00,89.1,66.1,30.14,NW,312,0.0,238.7,47,4.70,,,0.00,VWS V14.01,2013-05-31 14:47:00,
2013-05-31 10:52:00,89.4,66.3,30.14,NW,312,0.0,238.7,47,4.70,,,0.00,VWS V14.01,2013-05-31 14:52:00,
2013-05-31 10:57:00,89.7,65.6,30.14,NW,312,0.0,238.7,45,4.70,,,0.00,VWS V14.01,2013-05-31 14:57:00,
2013-05-31 11:02:00,90.2,63.6,30.14,WNW,298,3.3,238.7,41,4.70,,,0.00,VWS V14.01,2013-05-31 15:02:00,
2013-05-31 11:07:00,90.4,64.6,30.14,West,264,0.0,238.7,43,4.70,,,0.00,VWS V14.01,2013-05-31 15:07:00,
2013-05-31 11:13:00,91.0,65.2,30.14,West,264,0.0,238.7,43,4.70,,,0.00,VWS V14.01,2013-05-31 15:13:00,
2013-05-31 11:18:00,90.9,65.0,30.14,West,264,0.0,238.7,42,4.70,,,0.00,VWS V14.01,2013-05-31 15:18:00,
2013-05-31 11:23:00,91.0,65.2,30.13,West,264,0.0,238.7,43,4.70,,,0.00,VWS V14.01,2013-05-31 15:23:00,
2013-05-31 11:28:00,91.1,63.5,30.13,NNW,332,0.0,238.7,40,4.70,,,0.00,VWS V14.01,2013-05-31 15:28:00,
2013-05-31 11:33:00,91.1,62.7,30.13,NNW,332,0.0,238.7,39,4.70,,,0.00,VWS V14.01,2013-05-31 15:33:00,
2013-05-31 11:39:00,91.4,63.3,30.13,WNW,283,0.0,238.7,40,4.70,,,0.00,VWS V14.01,2013-05-31 15:39:00,
2013-05-31 11:44:00,91.8,62.5,30.13,SSW,201,3.5,238.7,38,4.70,,,0.00,VWS V14.01,2013-05-31 15:44:00,
2013-05-31 11:49:00,92.0,62.7,30.13,SW,226,5.1,238.7,38,4.70,,,0.00,VWS V14.01,2013-05-31 15:49:00,
2013-05-31 11:54:00,92.4,62.4,30.13,SW,229,0.0,238.7,37,4.70,,,0.00,VWS V14.01,2013-05-31 15:54:00,
2013-05-31 11:59:00,92.8,62.4,30.13,SW,236,0.0,238.7,37,4.70,,,0.00,VWS V14.01,2013-05-31 15:59:00,
2013-05-31 12:05:00,92.8,61.2,30.13,West,280,0.0,238.7,35,4.70,,,0.00,VWS V14.01,2013-05-31 16:05:00,
2013-05-31 12:10:00,92.9,62.2,30.13,NW,304,2.4,238.7,36,4.70,,,0.00,VWS V14.01,2013-05-31 16:10:00,
2013-05-31 12:15:00,93.2,61.6,30.13,NNW,332,0.0,238.7,35,4.70,,,0.00,VWS V14.01,2013-05-31 16:15:00,
2013-05-31 12:20:00,93.2,62.8,30.13,NNW,332,0.0,238.7,37,4.70,,,0.00,VWS V14.01,2013-05-31 16:20:00,
2013-05-31 12:26:00,93.4,62.2,30.12,NNE,17,0.0,238.7,36,4.70,,,0.00,VWS V14.01,2013-05-31 16:26:00,
2013-05-31 12:32:00,93.9,62.1,30.12,SW,232,0.0,238.7,35,4.70,,,0.00,VWS V14.01,2013-05-31 16:32:00,
2013-05-31 12:37:00,94.3,62.5,30.12,SW,232,0.0,238.7,35,4.70,,,0.00,VWS V14.01,2013-05-31 16:37:00,
2013-05-31 12:42:00,94.4,60.5,30.12,NW,308,6.9,238.7,32,4.70,,,0.00,VWS V14.01,2013-05-31 16:42:00,
2013-05-31 12:47:00,94.5,62.1,30.12,West,260,0.0,238.7,34,4.70,,,0.00,VWS V14.01,2013-05-31 16:47:00,
2013-05-31 12:52:00,94.9,63.2,30.12,West,260,0.0,238.7,35,4.70,,,0.00,VWS V14.01,2013-05-31 16:52:00,
2013-05-31 12:58:00,95.0,62.9,30.11,West,260,0.0,238.7,35,4.70,,,0.00,VWS V14.01,2013-05-31 16:58:00,
2013-05-31 13:03:00,95.8,65.1,30.11,West,260,0.0,238.7,37,4.70,,,0.00,VWS V14.01,2013-05-31 17:03:00,
2013-05-31 13:08:00,96.2,64.5,30.11,West,260,0.0,238.7,35,4.70,,,0.00,VWS V14.01,2013-05-31 17:08:00,
2013-05-31 13:13:00,96.1,63.6,30.11,NNE,32,0.0,238.7,34,4.70,,,0.00,VWS V14.01,2013-05-31 17:13:00,
2013-05-31 13:18:00,96.9,63.2,30.10,SSE,153,0.0,238.7,33,4.70,,,0.00,VWS V14.01,2013-05-31 17:18:00,
2013-05-31 13:23:00,97.3,60.7,30.10,SSE,160,0.0,238.7,30,4.70,,,0.00,VWS V14.01,2013-05-31 17:23:00,
2013-05-31 13:29:00,96.8,60.4,30.10,SSE,160,0.0,238.7,30,4.70,,,0.00,VWS V14.01,2013-05-31 17:29:00,
2013-05-31 13:34:00,96.1,61.5,30.10,NW,316,0.0,238.7,32,4.70,,,0.00,VWS V14.01,2013-05-31 17:34:00,
2013-05-31 13:39:00,95.8,61.6,30.10,West,269,0.0,238.7,32,4.70,,,0.00,VWS V14.01,2013-05-31 17:39:00,
2013-05-31 13:44:00,95.4,59.5,30.10,WSW,239,0.0,238.7,30,4.70,,,0.00,VWS V14.01,2013-05-31 17:44:00,
2013-05-31 13:50:00,95.2,57.7,30.10,WSW,239,0.0,238.7,29,4.70,,,0.00,VWS V14.01,2013-05-31 17:50:00,
2013-05-31 13:55:00,94.8,57.9,30.10,WSW,239,0.0,238.7,29,4.70,,,0.00,VWS V14.01,2013-05-31 17:55:00,
2013-05-31 14:00:00,94.3,60.0,30.10,WSW,239,0.0,238.7,32,4.70,,,0.00,VWS V14.01,2013-05-31 18:00:00,
2013-05-31 14:06:00,93.9,62.7,30.10,WSW,239,0.0,238.7,36,4.70,,,0.00,VWS V14.01,2013-05-31 18:06:00,
2013-05-31 14:11:00,94.0,63.2,30.09,WSW,239,0.0,238.7,36,4.70,,,0.00,VWS V14.01,2013-05-31 18:11:00,
2013-05-31 14:16:00,94.4,62.3,30.09,WSW,242,0.0,238.7,35,4.70,,,0.00,VWS V14.01,2013-05-31 18:16:00,
2013-05-31 14:22:00,95.4,63.8,30.09,South,170,0.0,238.7,35,4.70,,,0.00,VWS V14.01,2013-05-31 18:22:00,
2013-05-31 14:27:00,95.8,62.7,30.09,South,170,0.0,238.7,34,4.70,,,0.00,VWS V14.01,2013-05-31 18:27:00,
2013-05-31 14:32:00,96.3,61.8,30.09,NW,307,0.0,238.7,32,4.70,,,0.00,VWS V14.01,2013-05-31 18:32:00,
2013-05-31 14:37:00,96.8,63.3,30.09,ENE,68,0.0,238.7,33,4.70,,,0.00,VWS V14.01,2013-05-31 18:37:00,
2013-05-31 14:42:00,97.3,62.6,30.09,ENE,66,0.0,238.7,32,4.70,,,0.00,VWS V14.01,2013-05-31 18:42:00,
2013-05-31 14:48:00,97.4,63.2,30.09,West,277,0.0,238.7,33,4.70,,,0.00,VWS V14.01,2013-05-31 18:48:00,
2013-05-31 14:53:00,97.5,63.4,30.09,West,277,0.0,238.7,33,4.70,,,0.00,VWS V14.01,2013-05-31 18:53:00,
2013-05-31 14:58:00,97.8,62.3,30.08,NW,314,0.0,238.7,31,4.70,,,0.00,VWS V14.01,2013-05-31 18:58:00,
2013-05-31 15:03:00,98.2,61.9,30.08,North,359,0.0,238.7,30,4.70,,,0.00,VWS V14.01,2013-05-31 19:03:00,
2013-05-31 15:08:00,98.3,60.4,30.08,SE,124,0.0,238.7,29,4.70,,,0.00,VWS V14.01,2013-05-31 19:08:00,
2013-05-31 15:14:00,98.1,60.7,30.08,WNW,288,5.3,238.7,29,4.70,,,0.00,VWS V14.01,2013-05-31 19:14:00,
2013-05-31 15:19:00,97.9,61.8,30.08,West,271,0.0,238.7,31,4.70,,,0.00,VWS V14.01,2013-05-31 19:19:00,
2013-05-31 15:24:00,98.1,61.9,30.08,SSE,163,0.0,238.7,30,4.70,,,0.00,VWS V14.01,2013-05-31 19:24:00,
2013-05-31 15:29:00,98.3,63.0,30.08,SSE,165,0.0,238.7,32,4.70,,,0.00,VWS V14.01,2013-05-31 19:29:00,
2013-05-31 15:34:00,99.0,62.5,30.08,South,181,0.0,238.7,30,4.70,,,0.00,VWS V14.01,2013-05-31 19:34:00,
2013-05-31 15:40:00,99.1,61.7,30.08,West,270,4.3,238.7,29,4.70,,,0.00,VWS V14.01,2013-05-31 19:40:00,
2013-05-31 15:45:00,98.9,62.3,30.08,SSE,156,0.0,238.7,30,4.70,,,0.00,VWS V14.01,2013-05-31 19:45:00,
2013-05-31 15:50:00,98.8,63.7,30.08,West,271,0.0,238.7,32,4.70,,,0.00,VWS V14.01,2013-05-31 19:50:00,
2013-05-31 15:55:00,98.5,62.4,30.08,West,271,0.0,238.7,31,4.70,,,0.00,VWS V14.01,2013-05-31 19:55:00,
2013-05-31 16:00:00,99.0,62.9,30.07,WNW,302,0.0,238.7,31,4.70,,,0.00,VWS V14.01,2013-05-31 20:00:00,
2013-05-31 16:05:00,99.1,63.5,30.07,NW,307,0.0,238.7,31,4.70,,,0.00,VWS V14.01,2013-05-31 20:05:00,
2013-05-31 16:11:00,98.9,61.8,30.07,WSW,253,0.0,238.7,30,4.70,,,0.00,VWS V14.01,2013-05-31 20:11:00,
2013-05-31 16:16:00,98.8,61.4,30.07,North,10,0.0,238.7,29,4.70,,,0.00,VWS V14.01,2013-05-31 20:16:00,
2013-05-31 16:21:00,97.9,60.4,30.07,South,176,0.0,238.7,29,4.70,,,0.00,VWS V14.01,2013-05-31 20:21:00,
2013-05-31 16:26:00,97.3,60.0,30.07,WNW,288,0.0,238.7,29,4.70,,,0.00,VWS V14.01,2013-05-31 20:26:00,
2013-05-31 16:32:00,97.0,61.2,30.07,SSW,207,0.0,238.7,31,4.70,,,0.00,VWS V14.01,2013-05-31 20:32:00,
2013-05-31 16:37:00,97.1,63.1,30.07,South,174,0.0,238.7,33,4.70,,,0.00,VWS V14.01,2013-05-31 20:37:00,
2013-05-31 16:42:00,97.3,61.0,30.07,SSW,211,0.0,238.7,30,4.70,,,0.00,VWS V14.01,2013-05-31 20:42:00,
2013-05-31 16:47:00,97.8,60.6,30.06,WSW,253,0.0,238.7,29,4.70,,,0.00,VWS V14.01,2013-05-31 20:47:00,
2013-05-31 16:52:00,98.4,62.6,30.06,WSW,253,0.0,238.7,31,4.70,,,0.00,VWS V14.01,2013-05-31 20:52:00,
2013-05-31 16:58:00,99.2,62.2,30.06,North,359,0.0,238.7,30,4.70,,,0.00,VWS V14.01,2013-05-31 20:58:00,
2013-05-31 17:03:00,99.8,63.8,30.06,SE,124,0.0,238.7,31,4.70,,,0.00,VWS V14.01,2013-05-31 21:03:00,
2013-05-31 17:08:00,100.1,62.0,30.06,WSW,242,6.6,238.7,29,4.70,,,0.00,VWS V14.01,2013-05-31 21:08:00,
2013-05-31 17:13:00,99.8,62.1,30.06,SSE,163,6.0,238.7,29,4.70,,,0.00,VWS V14.01,2013-05-31 21:13:00,
2013-05-31 17:18:00,99.2,62.6,30.06,South,176,0.0,238.7,30,4.70,,,0.00,VWS V14.01,2013-05-31 21:18:00,
2013-05-31 17:24:00,99.3,62.6,30.06,SSE,149,2.9,238.7,30,4.70,,,0.00,VWS V14.01,2013-05-31 21:24:00,
2013-05-31 17:29:00,99.4,63.3,30.05,SSE,149,0.0,238.7,31,4.70,,,0.00,VWS V14.01,2013-05-31 21:29:00,
2013-05-31 17:34:00,99.4,62.8,30.05,WSW,242,0.0,238.7,30,4.70,,,0.00,VWS V14.01,2013-05-31 21:34:00,
2013-05-31 17:39:00,99.5,63.3,30.05,WSW,242,0.0,238.7,31,4.70,,,0.00,VWS V14.01,2013-05-31 21:39:00,
2013-05-31 17:44:00,99.5,62.6,30.05,ESE,108,0.0,238.7,30,4.70,,,0.00,VWS V14.01,2013-05-31 21:44:00,
2013-05-31 17:50:00,99.4,62.1,30.05,SW,218,0.0,238.7,30,4.70,,,0.00,VWS V14.01,2013-05-31 21:50:00,
2013-05-31 17:55:00,98.4,62.8,30.05,SE,134,0.0,238.7,31,4.70,,,0.00,VWS V14.01,2013-05-31 21:55:00,
2013-05-31 18:00:00,97.2,62.6,30.04,SSW,202,0.0,238.7,32,4.70,,,0.00,VWS V14.01,2013-05-31 22:00:00,
2013-05-31 18:05:00,96.0,62.9,30.04,WNW,295,0.0,238.7,34,4.70,,,0.00,VWS V14.01,2013-05-31 22:05:00,
2013-05-31 18:10:00,94.8,63.5,30.04,WNW,295,0.0,238.7,36,4.70,,,0.00,VWS V14.01,2013-05-31 22:10:00,
2013-05-31 18:15:00,94.0,62.8,30.04,WNW,301,0.0,238.7,36,4.70,,,0.00,VWS V14.01,2013-05-31 22:15:00,
2013-05-31 18:21:00,93.0,63.7,30.04,WNW,301,0.0,238.7,38,4.70,,,0.00,VWS V14.01,2013-05-31 22:21:00,
2013-05-31 18:26:00,92.3,63.4,30.04,SSE,152,0.0,238.7,38,4.70,,,0.00,VWS V14.01,2013-05-31 22:26:00,
2013-05-31 18:31:00,91.4,63.3,30.04,SE,141,0.0,238.7,39,4.70,,,0.00,VWS V14.01,2013-05-31 22:31:00,
2013-05-31 18:36:00,90.7,63.1,30.04,SE,141,0.0,238.7,40,4.70,,,0.00,VWS V14.01,2013-05-31 22:36:00,
2013-05-31 18:41:00,90.2,63.3,30.04,SSE,156,0.0,238.7,41,4.70,,,0.00,VWS V14.01,2013-05-31 22:41:00,
2013-05-31 18:47:00,89.9,63.1,30.04,SSE,156,0.0,238.7,41,4.70,,,0.00,VWS V14.01,2013-05-31 22:47:00,
2013-05-31 18:52:00,89.4,63.0,30.04,South,183,0.0,238.7,42,4.70,,,0.00,VWS V14.01,2013-05-31 22:52:00,
2013-05-31 18:57:00,89.2,63.1,30.04,South,183,0.0,238.7,42,4.70,,,0.00,VWS V14.01,2013-05-31 22:57:00,
2013-05-31 19:03:00,88.9,63.3,30.04,South,183,0.0,238.7,43,4.70,,,0.00,VWS V14.01,2013-05-31 23:03:00,
2013-05-31 19:08:00,88.3,62.9,30.04,ENE,59,0.0,238.7,43,4.70,,,0.00,VWS V14.01,2013-05-31 23:08:00,
2013-05-31 19:13:00,87.7,62.5,30.04,ENE,59,0.0,238.7,43,4.70,,,0.00,VWS V14.01,2013-05-31 23:13:00,
2013-05-31 19:19:00,87.4,62.6,30.03,ENE,59,0.0,238.7,44,4.70,,,0.00,VWS V14.01,2013-05-31 23:19:00,
2013-05-31 19:24:00,87.0,62.5,30.03,ENE,59,0.0,238.7,44,4.70,,,0.00,VWS V14.01,2013-05-31 23:24:00,
2013-05-31 19:33:00,86.3,62.3,30.03,ENE,59,0.0,238.7,45,4.70,,,0.00,VWS V14.01,2013-05-31 23:33:00,
2013-05-31 19:38:00,85.8,62.1,30.03,ENE,59,0.0,238.7,45,4.70,,,0.00,VWS V14.01,2013-05-31 23:38:00,
2013-05-31 19:44:00,85.4,62.0,30.04,ENE,59,0.0,238.7,46,4.70,,,0.00,VWS V14.01,2013-05-31 23:44:00,
2013-05-31 19:49:00,84.7,61.6,30.03,ENE,59,0.0,238.7,46,4.70,,,0.00,VWS V14.01,2013-05-31 23:49:00,
2013-05-31 19:54:00,84.3,61.8,30.03,SSW,204,0.0,238.7,47,4.70,,,0.00,VWS V14.01,2013-05-31 23:54:00,
2013-05-31 20:00:00,83.8,61.5,30.03,SSW,204,0.0,238.7,47,4.70,,,0.00,VWS V14.01,2013-06-01 00:00:00,
2013-05-31 20:05:00,83.4,61.3,30.04,SSW,204,0.0,238.7,47,4.70,,,0.00,VWS V14.01,2013-06-01 00:05:00,
2013-05-31 20:11:00,83.2,61.5,30.04,SSW,204,0.0,238.7,48,4.70,,,0.00,VWS V14.01,2013-06-01 00:11:00,
2013-05-31 20:16:00,82.7,61.5,30.04,SSW,204,0.0,238.7,49,4.70,,,0.00,VWS V14.01,2013-06-01 00:16:00,
2013-05-31 20:22:00,82.4,61.6,30.04,SSW,204,0.0,238.7,50,4.70,,,0.00,VWS V14.01,2013-06-01 00:22:00,
2013-05-31 20:27:00,82.1,61.8,30.04,SSW,204,0.0,238.7,50,4.70,,,0.00,VWS V14.01,2013-06-01 00:27:00,
2013-05-31 20:33:00,81.3,61.5,30.03,SSW,204,0.0,238.7,51,4.70,,,0.00,VWS V14.01,2013-06-01 00:33:00,
2013-05-31 20:39:00,80.7,61.6,30.04,SSW,204,0.0,238.7,52,4.70,,,0.00,VWS V14.01,2013-06-01 00:39:00,
2013-05-31 20:44:00,80.4,62.5,30.04,SSW,204,0.0,238.7,54,4.70,,,0.00,VWS V14.01,2013-06-01 00:44:00,
2013-05-31 20:50:00,79.8,63.3,30.04,SSW,204,0.0,238.7,57,4.70,,,0.00,VWS V14.01,2013-06-01 00:50:00,
2013-05-31 20:56:00,79.4,63.7,30.04,SSW,204,0.0,238.7,59,4.70,,,0.00,VWS V14.01,2013-06-01 00:56:00,
2013-05-31 21:01:00,79.1,63.8,30.04,SSW,204,0.0,238.7,60,4.70,,,0.00,VWS V14.01,2013-06-01 01:01:00,
2013-05-31 21:07:00,78.8,64.4,30.05,SSW,204,0.0,238.7,61,4.70,,,0.00,VWS V14.01,2013-06-01 01:07:00,
2013-05-31 21:12:00,78.2,64.5,30.05,SSW,204,0.0,238.7,63,4.70,,,0.00,VWS V14.01,2013-06-01 01:12:00,
2013-05-31 21:18:00,78.0,65.3,30.05,SSW,204,0.0,238.7,65,4.70,,,0.00,VWS V14.01,2013-06-01 01:18:00,
2013-05-31 21:23:00,77.4,65.3,30.05,SSW,204,0.0,238.7,66,4.70,,,0.00,VWS V14.01,2013-06-01 01:23:00,
2013-05-31 21:28:00,77.2,65.4,30.05,SSW,204,0.0,238.7,67,4.70,,,0.00,VWS V14.01,2013-06-01 01:28:00,
2013-05-31 21:34:00,77.1,65.4,30.05,SSW,204,0.0,238.7,67,4.70,,,0.00,VWS V14.01,2013-06-01 01:34:00,
2013-05-31 21:39:00,76.9,65.5,30.05,SSW,204,0.0,238.7,68,4.70,,,0.00,VWS V14.01,2013-06-01 01:39:00,
2013-05-31 21:45:00,76.7,65.5,30.05,SSW,204,0.0,238.7,68,4.70,,,0.00,VWS V14.01,2013-06-01 01:45:00,
2013-05-31 21:50:00,76.4,65.3,30.05,SSW,204,0.0,238.7,68,4.70,,,0.00,VWS V14.01,2013-06-01 01:50:00,
2013-05-31 21:56:00,76.4,65.2,30.06,SSW,204,0.0,238.7,68,4.70,,,0.00,VWS V14.01,2013-06-01 01:56:00,
2013-05-31 22:02:00,76.2,65.1,30.06,SSW,204,0.0,238.7,69,4.70,,,0.00,VWS V14.01,2013-06-01 02:02:00,
2013-05-31 22:08:00,76.0,65.4,30.06,SSW,204,0.0,238.7,70,4.70,,,0.00,VWS V14.01,2013-06-01 02:08:00,
2013-05-31 22:13:00,75.6,65.5,30.06,SSW,204,0.0,238.7,71,4.70,,,0.00,VWS V14.01,2013-06-01 02:13:00,
2013-05-31 22:18:00,75.3,65.6,30.06,SSW,204,0.0,238.7,72,4.70,,,0.00,VWS V14.01,2013-06-01 02:18:00,
2013-05-31 22:24:00,75.0,65.8,30.06,SSW,204,0.0,238.7,73,4.70,,,0.00,VWS V14.01,2013-06-01 02:24:00,
2013-05-31 22:29:00,74.7,66.1,30.06,SSW,204,0.0,238.7,74,4.70,,,0.00,VWS V14.01,2013-06-01 02:29:00,
2013-05-31 22:35:00,74.4,66.1,30.06,SSW,204,0.0,238.7,75,4.70,,,0.00,VWS V14.01,2013-06-01 02:35:00,
2013-05-31 22:40:00,74.1,66.0,30.06,SSW,204,0.0,238.7,76,4.70,,,0.00,VWS V14.01,2013-06-01 02:40:00,
2013-05-31 22:46:00,73.8,66.1,30.06,SSW,204,0.0,238.7,77,4.70,,,0.00,VWS V14.01,2013-06-01 02:46:00,
2013-05-31 22:52:00,73.5,66.0,30.06,SSW,204,0.0,238.7,77,4.70,,,0.00,VWS V14.01,2013-06-01 02:52:00,
2013-05-31 22:57:00,73.2,66.0,30.06,SSW,204,0.0,238.7,78,4.70,,,0.00,VWS V14.01,2013-06-01 02:57:00,
2013-05-31 23:03:00,72.8,66.2,30.06,SSW,204,0.0,238.7,80,4.70,,,0.00,VWS V14.01,2013-06-01 03:03:00,
2013-05-31 23:08:00,72.4,65.9,30.06,SSW,204,0.0,238.7,80,4.70,,,0.00,VWS V14.01,2013-06-01 03:08:00,
2013-05-31 23:14:00,72.1,65.9,30.06,SSW,204,0.0,238.7,81,4.70,,,0.00,VWS V14.01,2013-06-01 03:14:00,
2013-05-31 23:19:00,71.9,65.7,30.06,SSW,204,0.0,238.7,81,4.70,,,0.00,VWS V14.01,2013-06-01 03:19:00,
2013-05-31 23:24:00,71.9,65.8,30.06,SSW,204,0.0,238.7,81,4.70,,,0.00,VWS V14.01,2013-06-01 03:24:00,
2013-05-31 23:30:00,71.8,65.8,30.06,SSW,204,0.0,238.7,81,4.70,,,0.00,VWS V14.01,2013-06-01 03:30:00,
2013-05-31 23:36:00,71.8,66.4,30.06,SSW,204,0.0,238.7,83,4.70,,,0.00,VWS V14.01,2013-06-01 03:36:00,
2013-05-31 23:41:00,71.5,66.0,30.06,SSW,204,0.0,238.7,83,4.70,,,0.00,VWS V14.01,2013-06-01 03:41:00,
2013-05-31 23:47:00,71.4,66.5,30.06,SSW,204,0.0,238.7,84,4.70,,,0.00,VWS V14.01,2013-06-01 03:47:00,
2013-05-31 23:53:00,71.2,66.3,30.06,SSW,204,0.0,238.7,85,4.70,,,0.00,VWS V14.01,2013-06-01 03:53:00,
2013-05-31 23:58:00,71.2,66.2,30.06,SSW,204,0.0,238.7,84,4.70,,,0.00,VWS V14.01,2013-06-01 03:58:00,